Time;durP1;ratioP1;P1;durP2;ratioP2;P2;SDS_P1;SDS_P2;PMS_P1;PMS_P2;Temp;Humidity;BMP_temperature;BMP_pressure;BME280_temperature;BME280_humidity;BME280_pressure;Samples;Min_cycle;Max_cycle;Signal;HPM_P1;HPM_P2
2022/11/17 00:01:57;;;;;;;5.25;2.97;;;;;;;11.40;100.00;98145.13;4992530;28;20117;-72
2022/11/17 00:04:28;;;;;;;6.47;3.53;;;;;;;11.49;100.00;98156.97;4992317;28;20429;-72
2022/11/17 00:06:54;;;;;;;6.15;2.80;;;;;;;11.48;100.00;98149.94;4992372;28;20033;-72
2022/11/17 00:09:19;;;;;;;7.13;3.33;;;;;;;11.50;100.00;98154.22;4992138;28;20654;-72
2022/11/17 00:14:31;;;;;;;5.20;3.45;;;;;;;11.50;100.00;98132.03;4992252;28;20477;-72
2022/11/17 00:16:58;;;;;;;4.40;3.08;;;;;;;11.53;100.00;98134.53;4992226;28;20045;-72
2022/11/17 00:22:24;;;;;;;5.63;3.25;;;;;;;11.49;100.00;98135.69;4913037;29;20468;-72
2022/11/17 00:24:49;;;;;;;8.23;3.80;;;;;;;11.42;100.00;98121.06;4975733;28;20121;-72
2022/11/17 00:27:16;;;;;;;5.80;3.20;;;;;;;11.50;100.00;98118.72;4992447;28;20113;-72
2022/11/17 00:29:42;;;;;;;5.90;3.60;;;;;;;11.50;100.00;98118.72;4998108;28;20488;-73
2022/11/17 00:34:59;;;;;;;6.28;3.92;;;;;;;11.40;100.00;98105.19;4998668;28;20481;-73
2022/11/17 00:37:26;;;;;;;9.07;3.75;;;;;;;11.36;100.00;98101.03;4998778;28;20030;-73
2022/11/17 00:39:52;;;;;;;6.13;3.53;;;;;;;11.41;100.00;98098.94;4998473;28;20097;-72
2022/11/17 00:42:17;;;;;;;5.60;2.97;;;;;;;11.50;100.00;98102.75;4998658;28;20126;-72
2022/11/17 00:44:43;;;;;;;6.10;3.05;;;;;;;11.46;100.00;98096.81;4998418;28;20093;-72
2022/11/17 00:47:08;;;;;;;4.07;2.85;;;;;;;11.46;100.00;98079.97;4998495;28;20037;-72
2022/11/17 00:49:33;;;;;;;8.02;2.92;;;;;;;11.49;100.00;98080.63;4998509;28;20064;-72
2022/11/17 00:51:59;;;;;;;5.13;3.00;;;;;;;11.50;100.00;98077.00;5004403;28;20720;-72
2022/11/17 00:54:24;;;;;;;5.30;2.97;;;;;;;11.48;100.00;98067.41;5018148;28;20017;-72
2022/11/17 00:56:50;;;;;;;5.53;2.85;;;;;;;11.50;100.00;98065.47;5018068;28;20037;-72
2022/11/17 00:59:15;;;;;;;4.95;2.78;;;;;;;11.41;100.00;98050.16;5017996;28;20095;-72
2022/11/17 01:01:42;;;;;;;6.30;3.13;;;;;;;11.47;100.00;98060.38;5018151;28;20109;-72
2022/11/17 01:04:07;;;;;;;7.88;3.53;;;;;;;11.43;100.00;98048.25;5006297;28;20037;-72
2022/11/17 01:06:41;;;;;;;5.07;2.67;;;;;;;11.37;100.00;98032.66;4997805;28;20030;-72
2022/11/17 01:09:13;;;;;;;7.80;3.33;;;;;;;11.44;100.00;98039.28;4997662;28;20030;-72
2022/11/17 01:11:39;;;;;;;5.45;3.10;;;;;;;11.41;100.00;98034.19;4997826;28;20178;-72
2022/11/17 01:14:04;;;;;;;5.38;3.00;;;;;;;11.33;100.00;98025.84;4997683;28;20050;-72
2022/11/17 01:16:31;;;;;;;6.70;3.50;;;;;;;11.26;100.00;98020.09;4997783;28;20030;-73
2022/11/17 01:18:59;;;;;;;5.63;3.00;;;;;;;11.19;100.00;98012.59;4997653;28;20041;-73
2022/11/17 01:21:26;;;;;;;12.35;3.90;;;;;;;11.11;100.00;98012.25;4997490;28;20449;-72
2022/11/17 01:23:54;;;;;;;6.47;2.90;;;;;;;11.00;100.00;97996.16;4997249;28;20030;-72
2022/11/17 01:26:25;;;;;;;5.03;3.33;;;;;;;10.92;100.00;97982.53;4997208;28;20097;-73
2022/11/17 01:28:51;;;;;;;4.82;2.67;;;;;;;11.01;100.00;97993.41;4997837;28;20877;-73
2022/11/17 01:31:19;;;;;;;7.68;3.47;;;;;;;11.01;100.00;97992.53;5014719;28;20079;-72
2022/11/17 01:33:45;;;;;;;5.28;3.13;;;;;;;11.00;100.00;97985.53;5017065;28;20033;-73
2022/11/17 01:36:29;;;;;;;4.68;3.15;;;;;;;10.96;100.00;97978.69;5017469;28;20037;-72
2022/11/17 01:38:55;;;;;;;5.30;2.95;;;;;;;10.86;100.00;97945.69;4997540;28;20038;-72
2022/11/17 01:41:23;;;;;;;6.65;2.95;;;;;;;10.89;100.00;97972.09;5002897;28;20060;-72
2022/11/17 01:43:52;;;;;;;4.43;2.97;;;;;;;10.82;100.00;97961.03;4995654;28;20022;-72
2022/11/17 01:46:26;;;;;;;6.35;2.88;;;;;;;10.82;100.00;97954.84;4994223;28;20481;-72
2022/11/17 01:48:55;;;;;;;4.97;3.08;;;;;;;10.80;100.00;97943.44;5005436;28;20045;-72
2022/11/17 01:51:22;;;;;;;6.35;3.00;;;;;;;10.83;100.00;97927.28;5013676;28;20033;-72
2022/11/17 01:53:50;;;;;;;5.38;3.45;;;;;;;10.84;100.00;97923.69;5011440;28;20138;-72
2022/11/17 01:56:26;;;;;;;5.03;3.22;;;;;;;10.83;100.00;97929.94;5013594;28;20057;-72
2022/11/17 01:59:01;;;;;;;4.50;3.03;;;;;;;10.78;100.00;97918.75;5013659;28;20029;-72
2022/11/17 02:01:27;;;;;;;5.78;3.10;;;;;;;10.78;100.00;97927.59;5000235;28;20039;-72
2022/11/17 02:03:52;;;;;;;7.47;3.40;;;;;;;10.67;100.00;97913.31;4994372;28;20037;-72
2022/11/17 02:06:30;;;;;;;6.10;3.17;;;;;;;10.78;100.00;97932.06;4992927;28;20030;-73
2022/11/17 02:08:56;;;;;;;11.80;3.50;;;;;;;10.71;100.00;97922.78;4992832;28;20026;-73
2022/11/17 02:11:24;;;;;;;6.47;2.80;;;;;;;10.73;100.00;97931.50;5009506;28;20023;-73
2022/11/17 02:13:53;;;;;;;9.90;3.50;;;;;;;10.80;100.00;97941.66;4992805;28;20425;-72
2022/11/17 02:16:19;;;;;;;6.30;3.17;;;;;;;10.80;100.00;97946.09;4994366;28;20022;-73
2022/11/17 02:18:45;;;;;;;7.57;3.22;;;;;;;10.83;100.00;97956.53;4994528;28;20113;-73
2022/11/17 02:21:53;;;;;;;5.15;3.03;;;;;;;10.86;100.00;97961.63;4994199;28;20034;-73
2022/11/17 02:24:27;;;;;;;4.13;3.05;;;;;;;10.86;100.00;97990.91;4984357;28;20038;-73
2022/11/17 02:27:21;;;;;;;4.78;3.08;;;;;;;10.83;100.00;97999.06;4994185;28;20109;-73
2022/11/17 02:30:16;;;;;;;5.77;3.20;;;;;;;10.92;100.00;97978.06;4994309;28;20037;-73
2022/11/17 02:32:57;;;;;;;3.72;2.15;;;;;;;11.02;100.00;97957.84;4977901;28;20112;-73
2022/11/17 02:35:40;;;;;;;6.45;2.65;;;;;;;11.03;100.00;97935.63;4993980;28;20496;-73
2022/11/17 02:38:08;;;;;;;6.20;2.78;;;;;;;11.17;100.00;97945.34;4994184;28;20034;-73
2022/11/17 02:40:48;;;;;;;5.47;2.95;;;;;;;11.12;100.00;97921.69;4993933;28;20097;-73
2022/11/17 02:46:16;;;;;;;7.05;2.97;;;;;;;11.25;100.00;97940.38;4974644;28;20042;-72
2022/11/17 02:48:53;;;;;;;4.97;2.20;;;;;;;11.22;100.00;97928.09;4994413;28;20077;-72
2022/11/17 02:51:21;;;;;;;11.57;2.70;;;;;;;11.21;100.00;97920.22;4972511;28;20455;-73
2022/11/17 02:53:51;;;;;;;3.60;2.42;;;;;;;11.22;100.00;97911.31;4974330;28;20110;-73
2022/11/17 02:56:16;;;;;;;3.90;2.35;;;;;;;11.26;100.00;97928.75;4974248;28;20037;-73
2022/11/17 02:58:41;;;;;;;4.72;2.40;;;;;;;11.29;100.00;97929.41;4985229;28;20042;-73
2022/11/17 03:01:22;;;;;;;4.63;2.30;;;;;;;11.36;100.00;97919.19;4992195;28;20550;-73
2022/11/17 03:04:06;;;;;;;5.13;2.42;;;;;;;11.38;100.00;97933.25;4992401;28;20038;-74
2022/11/17 03:07:17;;;;;;;6.57;2.35;;;;;;;11.41;100.00;97938.34;4972732;28;20127;-74
2022/11/17 03:09:53;;;;;;;4.38;2.53;;;;;;;11.38;100.00;97926.09;4957485;28;20041;-74
2022/11/17 03:12:35;;;;;;;11.40;3.08;;;;;;;11.47;100.00;97933.44;4974083;28;20023;-75
2022/11/17 03:15:21;;;;;;;6.82;2.40;;;;;;;11.52;100.00;97931.31;4974049;28;20085;-74
2022/11/17 03:17:53;;;;;;;5.97;2.35;;;;;;;11.51;100.00;97924.31;4973791;28;20054;-74
2022/11/17 03:20:25;;;;;;;3.88;1.90;;;;;;;11.63;100.00;97935.91;4973990;28;20030;-74
2022/11/17 03:23:06;;;;;;;2.17;1.45;;;;;;;11.69;100.00;97943.50;4973313;28;20127;-73
2022/11/17 03:25:36;;;;;;;2.38;1.40;;;;;;;11.69;100.00;97940.84;4973811;28;20146;-74
2022/11/17 03:28:05;;;;;;;1.90;1.48;;;;;;;11.76;100.00;97944.78;4973445;28;20056;-74
2022/11/17 03:30:34;;;;;;;4.32;1.35;;;;;;;11.76;100.00;97939.47;4989595;28;20117;-74
2022/11/17 03:33:05;;;;;;;1.98;1.38;;;;;;;11.79;100.00;97928.56;4992805;28;20018;-71
2022/11/17 03:35:35;;;;;;;1.10;1.00;;;;;;;11.82;100.00;97925.69;4991965;28;20588;-72
2022/11/17 03:38:08;;;;;;;1.42;1.23;;;;;;;11.64;100.00;97887.03;4992424;28;20109;-72
2022/11/17 03:40:38;;;;;;;2.05;1.40;;;;;;;11.85;100.00;97917.47;4992672;28;20552;-72
2022/11/17 03:43:07;;;;;;;2.38;1.48;;;;;;;11.85;100.00;97907.69;4992432;28;20029;-72
2022/11/17 03:45:36;;;;;;;2.45;1.30;;;;;;;11.88;100.00;97927.91;4992749;28;20037;-72
2022/11/17 03:48:20;;;;;;;2.78;1.77;;;;;;;11.88;100.00;97934.09;5007562;28;20032;-72
2022/11/17 03:51:05;;;;;;;3.25;1.98;;;;;;;11.87;100.00;97958.19;5007606;28;20026;-72
2022/11/17 03:53:32;;;;;;;3.25;1.52;;;;;;;11.86;100.00;97956.50;4992639;28;20541;-72
2022/11/17 03:56:18;;;;;;;10.75;1.70;;;;;;;11.90;100.00;97953.50;4995109;28;20025;-72
2022/11/17 03:58:58;;;;;;;6.78;1.67;;;;;;;11.90;100.00;97942.84;4992504;28;20112;-72
2022/11/17 04:01:26;;;;;;;4.15;1.52;;;;;;;11.85;100.00;97960.09;4990791;28;20555;-72
2022/11/17 04:03:52;;;;;;;3.58;1.50;;;;;;;11.86;100.00;97959.16;4991631;28;20032;-72
2022/11/17 04:06:17;;;;;;;5.47;1.50;;;;;;;11.90;100.00;97949.97;4990618;28;20355;-72
2022/11/17 04:08:43;;;;;;;4.93;1.30;;;;;;;11.88;100.00;97946.56;4992382;28;20034;-72
2022/11/17 04:16:37;;;;;;;2.92;1.48;;;;;;;11.94;100.00;97960.28;4992329;28;20045;-71
2022/11/17 04:19:02;;;;;;;3.35;1.50;;;;;;;11.99;100.00;97967.13;4992329;28;20026;-71
2022/11/17 04:21:27;;;;;;;3.70;1.00;;;;;;;12.00;100.00;97951.03;4991917;28;20022;-71
2022/11/17 04:23:53;;;;;;;1.60;1.10;;;;;;;12.04;100.00;97939.22;4992244;28;20022;-71
2022/11/17 04:29:03;;;;;;;1.05;0.80;;;;;;;12.11;100.00;97935.13;4992184;28;20121;-71
2022/11/17 04:31:30;;;;;;;1.42;0.98;;;;;;;12.15;100.00;97930.41;4992125;28;20093;-71
2022/11/17 04:34:01;;;;;;;1.95;1.30;;;;;;;12.20;100.00;97921.16;4990299;28;20030;-71
2022/11/17 04:36:29;;;;;;;2.08;1.30;;;;;;;12.25;100.00;97926.13;5006075;28;20537;-71
2022/11/17 04:38:57;;;;;;;4.47;1.80;;;;;;;12.24;100.00;97930.59;4990842;28;20052;-71
2022/11/17 04:44:10;;;;;;;1.75;1.20;;;;;;;12.33;100.00;97916.63;4991140;28;20069;-71
2022/11/17 04:46:37;;;;;;;1.30;1.00;;;;;;;12.33;100.00;97911.28;4991288;28;20483;-71
2022/11/17 04:49:03;;;;;;;3.45;1.73;;;;;;;12.39;100.00;97913.50;5006393;28;20088;-71
2022/11/17 04:51:30;;;;;;;6.22;1.33;;;;;;;12.39;100.00;97923.34;4991946;28;20080;-71
2022/11/17 04:53:56;;;;;;;2.05;1.17;;;;;;;12.35;100.00;97917.38;4991872;28;20037;-71
2022/11/17 04:56:22;;;;;;;1.80;1.13;;;;;;;12.37;100.00;97920.75;4991934;28;20394;-71
2022/11/17 04:58:48;;;;;;;3.53;1.23;;;;;;;12.41;100.00;97922.25;4992124;28;20038;-71
2022/11/17 05:01:16;;;;;;;2.08;0.90;;;;;;;12.39;100.00;97924.16;5007174;28;20039;-70
2022/11/17 05:03:42;;;;;;;1.55;1.15;;;;;;;12.46;100.00;97935.22;5003170;28;20084;-70
2022/11/17 05:06:28;;;;;;;3.10;0.90;;;;;;;12.47;100.00;97935.13;4991836;28;20033;-71
2022/11/17 05:08:55;;;;;;;1.67;0.95;;;;;;;12.43;100.00;97931.00;4991807;28;20076;-71
2022/11/17 05:14:07;;;;;;;1.85;1.30;;;;;;;12.40;100.00;97923.22;4992073;28;20223;-71
2022/11/17 05:19:19;;;;;;;1.63;1.10;;;;;;;12.35;100.00;97905.84;4995320;28;20402;-71
2022/11/17 05:21:45;;;;;;;1.73;1.10;;;;;;;12.37;100.00;97920.75;4997792;28;20073;-71
2022/11/17 05:24:13;;;;;;;2.30;1.02;;;;;;;12.41;100.00;97914.25;4995375;28;20248;-71
2022/11/17 05:26:39;;;;;;;3.72;1.40;;;;;;;12.45;100.00;97921.06;4995200;28;20470;-71
2022/11/17 05:29:06;;;;;;;2.15;0.95;;;;;;;12.46;100.00;97917.44;4995324;28;20037;-71
2022/11/17 05:31:32;;;;;;;2.35;1.00;;;;;;;12.45;100.00;97925.53;4994952;28;20014;-71
2022/11/17 05:33:58;;;;;;;2.92;1.40;;;;;;;12.49;100.00;97922.53;4995199;28;20030;-71
2022/11/17 05:36:25;;;;;;;2.47;1.00;;;;;;;12.54;100.00;97928.38;4994948;28;20109;-71
2022/11/17 05:38:51;;;;;;;1.88;0.77;;;;;;;12.59;100.00;97931.56;4994844;28;20034;-70
2022/11/17 05:41:18;;;;;;;1.70;1.00;;;;;;;12.52;100.00;97929.47;4994908;28;20019;-71
2022/11/17 05:43:43;;;;;;;4.60;1.00;;;;;;;12.63;100.00;97930.38;4997469;28;20469;-70
2022/11/17 05:46:09;;;;;;;4.38;1.63;;;;;;;12.60;100.00;97930.59;4994786;28;20057;-71
2022/11/17 05:48:34;;;;;;;4.20;1.10;;;;;;;12.68;100.00;97930.91;4994782;28;20034;-71
2022/11/17 05:51:00;;;;;;;2.65;1.10;;;;;;;12.62;100.00;97947.31;4994981;28;20022;-71
2022/11/17 05:53:28;;;;;;;4.43;1.15;;;;;;;12.59;100.00;97944.91;4994852;28;20022;-70
2022/11/17 05:56:23;;;;;;;1.50;0.82;;;;;;;12.63;100.00;97941.06;4994703;28;20581;-71
2022/11/17 05:58:53;;;;;;;3.22;0.90;;;;;;;12.70;100.00;97934.28;4994671;28;20030;-70
2022/11/17 06:01:20;;;;;;;4.00;1.23;;;;;;;12.76;100.00;97927.66;5003159;28;20426;-71
2022/11/17 06:03:56;;;;;;;1.17;0.70;;;;;;;12.83;100.00;97929.72;5005464;28;20037;-70
2022/11/17 06:06:22;;;;;;;1.63;1.10;;;;;;;12.93;100.00;97919.25;4993124;28;20027;-70
2022/11/17 06:08:48;;;;;;;3.63;0.93;;;;;;;12.93;100.00;97913.91;4994666;28;20092;-71
2022/11/17 06:11:15;;;;;;;1.42;0.90;;;;;;;13.02;100.00;97929.25;4994317;28;20426;-71
2022/11/17 06:13:41;;;;;;;2.20;0.80;;;;;;;12.98;100.00;97912.56;4994382;28;20405;-71
2022/11/17 06:16:11;;;;;;;5.05;1.05;;;;;;;13.07;100.00;97911.06;4994514;28;20109;-70
2022/11/17 06:18:47;;;;;;;3.03;1.33;;;;;;;13.13;100.00;97895.44;4994401;28;20121;-71
2022/11/17 06:21:14;;;;;;;2.20;1.02;;;;;;;13.24;100.00;97876.75;4998109;28;20034;-71
2022/11/17 06:23:40;;;;;;;7.05;1.23;;;;;;;13.29;100.00;97888.91;5021036;28;20033;-72
2022/11/17 06:26:08;;;;;;;3.55;1.40;;;;;;;13.27;100.00;97920.22;4994186;28;20105;-70
2022/11/17 06:28:36;;;;;;;5.15;1.30;;;;;;;13.26;100.00;97934.53;4994343;28;20113;-68
2022/11/17 06:31:02;;;;;;;4.00;2.03;;;;;;;13.24;100.00;97943.50;4994538;28;20026;-68
2022/11/17 06:33:29;;;;;;;3.97;1.73;;;;;;;13.30;100.00;97944.00;4992869;28;20033;-68
2022/11/17 06:35:55;;;;;;;3.28;1.35;;;;;;;13.23;100.00;97927.59;4994374;28;20073;-67
2022/11/17 06:38:21;;;;;;;2.40;1.30;;;;;;;13.31;100.00;97929.69;5009509;28;20073;-67
2022/11/17 06:40:46;;;;;;;2.95;1.40;;;;;;;13.26;100.00;97913.19;4994099;28;20054;-69
2022/11/17 06:43:12;;;;;;;2.88;1.20;;;;;;;13.31;100.00;97924.38;4994211;28;20393;-70
2022/11/17 06:45:42;;;;;;;5.70;2.30;;;;;;;13.33;100.00;97917.09;4995413;28;20022;-69
2022/11/17 06:48:10;;;;;;;3.05;1.35;;;;;;;13.33;100.00;97923.25;4994446;28;20049;-69
2022/11/17 06:50:35;;;;;;;6.28;1.70;;;;;;;13.33;100.00;97919.75;4991935;28;20066;-68
2022/11/17 06:53:04;;;;;;;4.07;1.90;;;;;;;13.28;100.00;97936.13;4993715;28;20517;-68
2022/11/17 06:55:30;;;;;;;3.58;1.30;;;;;;;13.32;100.00;97936.72;4992726;28;20478;-68
2022/11/17 06:58:07;;;;;;;2.85;1.08;;;;;;;13.39;100.00;97933.50;4993675;28;20034;-68
2022/11/17 07:00:34;;;;;;;1.70;0.82;;;;;;;13.48;100.00;97942.59;4993294;28;20396;-68
2022/11/17 07:03:08;;;;;;;2.03;0.90;;;;;;;13.52;100.00;97944.06;4991766;28;20050;-69
2022/11/17 07:05:34;;;;;;;;;;;;;;;13.65;100.00;97951.03;4993808;28;20033;-68
2022/11/17 07:08:01;;;;;;;1.52;1.08;;;;;;;13.65;100.00;97956.38;4993482;28;19916;-68
2022/11/17 07:10:28;;;;;;;3.55;1.13;;;;;;;13.70;100.00;97961.34;4993428;28;20533;-67
2022/11/17 07:12:53;;;;;;;2.90;0.90;;;;;;;13.73;100.00;97959.28;4992573;28;20066;-67
2022/11/17 07:15:19;;;;;;;2.15;0.80;;;;;;;13.74;100.00;97966.31;4993088;28;20393;-68
2022/11/17 07:17:45;;;;;;;6.80;1.90;;;;;;;13.81;100.00;97953.34;4993940;28;20424;-71
2022/11/17 07:20:11;;;;;;;2.88;0.90;;;;;;;13.82;100.00;97952.38;4993272;28;20030;-72
2022/11/17 07:22:37;;;;;;;5.65;0.80;;;;;;;13.80;99.17;97949.84;4992775;28;20045;-69
2022/11/17 07:25:03;;;;;;;4.10;0.98;;;;;;;13.86;99.53;97951.16;4993546;28;20034;-67
2022/11/17 07:27:29;;;;;;;1.63;0.70;;;;;;;13.85;98.90;97957.47;4992983;28;20034;-67
2022/11/17 07:29:55;;;;;;;1.45;0.90;;;;;;;13.80;99.41;97960.53;4994267;28;20021;-67
2022/11/17 07:32:20;;;;;;;3.05;0.98;;;;;;;13.85;100.00;97968.16;5002436;28;20023;-67
2022/11/17 07:34:46;;;;;;;1.85;0.90;;;;;;;13.81;100.00;97983.59;5006618;28;20056;-67
2022/11/17 07:37:11;;;;;;;3.58;1.20;;;;;;;13.79;100.00;97976.69;4973428;28;20027;-67
2022/11/17 07:39:37;;;;;;;2.92;1.25;;;;;;;13.82;100.00;97987.94;4983579;28;20026;-68
2022/11/17 07:42:02;;;;;;;3.90;1.33;;;;;;;13.82;100.00;97995.13;4993458;28;20041;-67
2022/11/17 07:44:28;;;;;;;2.08;1.13;;;;;;;13.86;100.00;97988.56;4992555;28;20054;-67
2022/11/17 07:46:54;;;;;;;4.07;0.90;;;;;;;13.87;100.00;98004.47;4992655;28;20466;-67
2022/11/17 07:49:19;;;;;;;4.18;1.30;;;;;;;13.83;100.00;97989.66;4992545;28;20022;-67
2022/11/17 07:51:45;;;;;;;5.82;1.45;;;;;;;13.93;100.00;97990.66;4990854;28;20034;-67
2022/11/17 07:54:10;;;;;;;2.85;0.73;;;;;;;13.83;100.00;97992.34;4992172;28;20746;-67
2022/11/17 07:56:35;;;;;;;4.88;1.05;;;;;;;13.92;100.00;98002.31;4994919;28;20026;-67
2022/11/17 07:59:01;;;;;;;4.85;1.10;;;;;;;13.88;100.00;98005.34;4992391;28;20081;-67
2022/11/17 08:01:26;;;;;;;3.35;0.95;;;;;;;13.91;100.00;98010.44;4992041;28;20026;-68
2022/11/17 08:03:52;;;;;;;7.95;1.30;;;;;;;13.89;100.00;98001.69;4991750;28;20109;-68
2022/11/17 08:06:18;;;;;;;3.72;1.30;;;;;;;13.99;100.00;98011.56;4991990;28;20067;-68
2022/11/17 08:08:44;;;;;;;3.08;1.00;;;;;;;14.04;100.00;98021.88;4991649;28;20409;-68
2022/11/17 08:11:11;;;;;;;2.75;0.98;;;;;;;14.07;100.00;98024.31;4991356;28;20034;-67
2022/11/17 08:13:38;;;;;;;5.85;1.20;;;;;;;14.05;100.00;98023.59;4992016;28;20050;-67
2022/11/17 08:16:05;;;;;;;2.13;1.55;;;;;;;14.08;100.00;98031.38;4990878;28;20459;-68
2022/11/17 08:18:31;;;;;;;1.98;0.90;;;;;;;14.08;99.27;98034.91;4991750;28;20125;-68
2022/11/17 08:21:14;;;;;;;2.80;1.20;;;;;;;14.14;99.27;98038.91;4990920;28;20030;-67
2022/11/17 08:23:41;;;;;;;1.95;0.90;;;;;;;14.23;98.89;98028.31;4991110;28;20501;-68
2022/11/17 08:26:08;;;;;;;2.33;1.10;;;;;;;14.20;97.14;98038.44;4990828;28;20030;-68
2022/11/17 08:28:35;;;;;;;3.15;1.20;;;;;;;14.22;97.15;98042.69;4991541;28;20022;-69
2022/11/17 08:31:01;;;;;;;1.70;0.82;;;;;;;14.19;97.26;98047.41;4991733;28;20039;-69
2022/11/17 08:33:27;;;;;;;2.15;0.68;;;;;;;14.15;96.86;98051.31;4990112;28;20042;-68
2022/11/17 08:35:57;;;;;;;1.27;0.80;;;;;;;14.12;96.57;98048.84;4991882;28;20030;-68
2022/11/17 08:38:27;;;;;;;2.67;0.70;;;;;;;14.12;96.67;98056.88;4991867;28;20026;-68
2022/11/17 08:40:54;;;;;;;1.75;0.70;;;;;;;14.10;96.16;98069.53;4991845;28;20486;-68
2022/11/17 08:43:19;;;;;;;1.98;0.70;;;;;;;14.09;96.97;98068.69;4992026;28;20031;-68
2022/11/17 08:45:44;;;;;;;1.25;0.50;;;;;;;14.07;96.71;98059.06;4989676;28;20038;-68
2022/11/17 08:48:10;;;;;;;1.67;0.57;;;;;;;14.12;97.13;98052.41;4992688;28;20446;-70
2022/11/17 08:50:35;;;;;;;1.38;1.02;;;;;;;14.08;96.17;98040.25;5003873;28;20501;-70
2022/11/17 08:53:01;;;;;;;2.70;0.88;;;;;;;14.12;94.84;98047.03;4977116;28;20034;-69
2022/11/17 08:55:26;;;;;;;2.42;1.10;;;;;;;14.24;94.66;98055.94;4991601;28;20140;-69
2022/11/17 08:57:51;;;;;;;2.70;1.20;;;;;;;14.21;94.37;98061.53;4995080;28;20113;-70
2022/11/17 09:00:19;;;;;;;3.30;1.25;;;;;;;14.25;93.30;98063.88;4995183;28;20049;-70
2022/11/17 09:02:44;;;;;;;3.85;1.10;;;;;;;14.29;92.20;98056.47;4991063;28;20031;-70
2022/11/17 09:05:10;;;;;;;2.28;1.08;;;;;;;14.30;92.85;98061.69;4987220;28;20026;-70
2022/11/17 09:07:36;;;;;;;5.93;1.38;;;;;;;14.27;92.19;98066.41;4994573;28;20022;-70
2022/11/17 09:10:04;;;;;;;3.35;0.85;;;;;;;14.27;93.11;98063.75;4994357;28;20402;-70
2022/11/17 09:12:29;;;;;;;1.92;0.80;;;;;;;14.28;92.76;98068.13;4996213;28;20028;-73
2022/11/17 09:14:55;;;;;;;3.00;0.63;;;;;;;14.29;91.91;98083.19;4995340;28;20026;-74
2022/11/17 09:17:20;;;;;;;1.92;0.75;;;;;;;14.28;91.24;98084.19;4995910;28;20053;-72
2022/11/17 09:19:46;;;;;;;3.75;0.77;;;;;;;14.29;90.73;98081.38;4988664;28;20035;-72
2022/11/17 09:22:11;;;;;;;2.42;0.90;;;;;;;14.27;88.63;98071.75;5000536;28;20625;-72
2022/11/17 09:24:36;;;;;;;2.10;1.02;;;;;;;14.20;89.85;98065.19;4994395;28;20026;-72
2022/11/17 09:27:02;;;;;;;1.98;1.35;;;;;;;14.24;89.69;98082.66;4992581;28;20672;-72
2022/11/17 09:29:28;;;;;;;1.00;0.68;;;;;;;14.21;89.48;98088.25;4994121;28;20030;-72
2022/11/17 09:31:54;;;;;;;3.15;0.73;;;;;;;14.20;90.41;98076.72;4999680;28;20052;-72
2022/11/17 09:34:19;;;;;;;1.67;0.80;;;;;;;14.18;90.57;98083.16;4993971;28;20477;-72
2022/11/17 09:36:47;;;;;;;1.85;0.82;;;;;;;14.18;89.63;98077.81;4990039;28;20030;-72
2022/11/17 09:39:14;;;;;;;1.60;0.75;;;;;;;14.27;90.17;98082.47;4992920;28;20080;-72
2022/11/17 09:41:48;;;;;;;2.13;0.90;;;;;;;14.50;90.32;98101.09;4990391;28;20109;-72
2022/11/17 09:44:50;;;;;;;1.55;0.80;;;;;;;14.62;87.84;98093.91;4991275;28;20472;-72
2022/11/17 09:47:19;;;;;;;1.15;0.80;;;;;;;14.69;88.00;98100.50;4993047;28;20022;-72
2022/11/17 09:49:57;;;;;;;2.85;0.90;;;;;;;14.62;86.30;98101.94;4990528;28;20026;-72
2022/11/17 09:52:48;;;;;;;2.75;0.90;;;;;;;14.68;87.22;98098.78;4993195;28;20026;-69
2022/11/17 09:55:21;;;;;;;0.90;0.65;;;;;;;14.66;86.10;98095.41;4964476;28;20046;-69
2022/11/17 09:58:12;;;;;;;0.90;0.73;;;;;;;14.64;85.19;98101.81;4989996;28;20023;-69
2022/11/17 10:00:40;;;;;;;2.22;1.02;;;;;;;14.61;86.00;98096.72;4994299;28;20030;-69
2022/11/17 10:03:21;;;;;;;2.35;0.93;;;;;;;14.57;84.49;98089.91;4991390;28;20049;-68
2022/11/17 10:05:47;;;;;;;2.35;0.80;;;;;;;14.57;85.46;98096.13;5009245;28;20161;-68
2022/11/17 10:08:28;;;;;;;4.07;0.90;;;;;;;14.59;84.54;98104.88;4991309;28;20522;-68
2022/11/17 10:10:53;;;;;;;1.45;0.88;;;;;;;14.61;85.55;98108.28;4993753;28;20100;-68
2022/11/17 10:13:35;;;;;;;3.38;0.80;;;;;;;14.47;83.86;98096.00;4993694;28;20387;-68
2022/11/17 10:16:04;;;;;;;3.47;1.20;;;;;;;14.53;83.91;98094.63;4988481;28;20034;-68
2022/11/17 10:18:34;;;;;;;2.13;0.90;;;;;;;14.36;83.78;98066.53;4990394;28;20853;-68
2022/11/17 10:21:00;;;;;;;4.47;0.90;;;;;;;14.80;81.90;98097.81;4988071;28;20037;-68
2022/11/17 10:23:36;;;;;;;1.95;0.60;;;;;;;15.10;79.26;98095.34;4988749;28;20481;-69
2022/11/17 10:26:07;;;;;;;1.95;0.65;;;;;;;15.28;76.81;98092.97;4978390;28;20033;-68
2022/11/17 10:28:33;;;;;;;2.92;0.60;;;;;;;15.40;76.79;98108.09;4977426;28;20026;-69
2022/11/17 10:31:09;;;;;;;1.17;0.60;;;;;;;15.49;78.05;98105.50;4988110;28;20528;-68
2022/11/17 10:33:46;;;;;;;2.13;0.68;;;;;;;15.40;78.28;98106.25;4987576;28;20031;-69
2022/11/17 10:36:21;;;;;;;2.53;0.80;;;;;;;15.77;78.91;98101.38;4976680;28;20026;-70
2022/11/17 10:38:50;;;;;;;2.45;0.60;;;;;;;15.99;74.47;98101.28;4988256;28;20149;-69
2022/11/17 10:41:36;;;;;;;1.17;0.73;;;;;;;15.82;75.02;98120.59;4992747;28;20390;-69
2022/11/17 10:44:19;;;;;;;3.10;0.73;;;;;;;16.49;74.33;98118.44;4986184;28;20485;-70
2022/11/17 10:47:06;;;;;;;2.83;0.82;;;;;;;17.22;70.29;98110.97;4986067;28;20026;-69
2022/11/17 10:49:38;;;;;;;4.60;0.90;;;;;;;18.34;68.01;98107.66;4985163;28;20046;-69
2022/11/17 10:52:14;;;;;;;1.60;0.60;;;;;;;18.71;63.57;98114.97;4986239;28;20097;-68
2022/11/17 10:54:39;;;;;;;1.05;0.50;;;;;;;19.26;60.95;98122.94;4986169;28;20092;-68
2022/11/17 10:57:11;;;;;;;2.08;0.60;;;;;;;19.53;59.23;98114.03;4985686;28;20577;-76
2022/11/17 10:59:47;;;;;;;2.75;1.02;;;;;;;19.30;59.24;98128.91;4985904;28;20500;-71
2022/11/17 11:02:28;;;;;;;3.65;0.60;;;;;;;18.88;61.62;98106.13;4975304;28;20033;-70
2022/11/17 11:05:14;;;;;;;2.05;0.60;;;;;;;19.52;64.28;98115.88;4987205;28;20493;-70
2022/11/17 11:07:40;;;;;;;5.22;0.95;;;;;;;20.23;58.32;98124.88;4986832;28;20057;-73
2022/11/17 11:10:06;;;;;;;3.38;0.65;;;;;;;20.39;57.82;98111.50;4976471;28;20073;-71
2022/11/17 11:12:38;;;;;;;1.10;0.40;;;;;;;20.35;57.96;98123.63;4986713;28;20053;-72
2022/11/17 11:15:08;;;;;;;0.65;0.43;;;;;;;20.43;56.88;98120.97;4985308;28;20092;-72
2022/11/17 11:17:33;;;;;;;1.40;0.70;;;;;;;20.01;58.12;98125.31;4985424;28;20367;-72
2022/11/17 11:19:59;;;;;;;4.05;0.60;;;;;;;19.23;60.18;98114.31;4985729;28;20041;-74
2022/11/17 11:22:48;;;;;;;2.50;0.55;;;;;;;19.02;63.47;98122.66;4986383;28;20406;-71
2022/11/17 11:25:23;;;;;;;4.30;0.95;;;;;;;19.03;63.55;98112.69;4985706;28;20085;-71
2022/11/17 11:28:33;;;;;;;3.88;0.70;;;;;;;18.86;63.43;98105.41;4985681;28;20038;-71
2022/11/17 11:31:24;;;;;;;3.13;0.80;;;;;;;18.61;63.59;98111.44;4988910;28;20026;-71
2022/11/17 11:34:21;;;;;;;2.22;0.75;;;;;;;17.90;67.35;98112.78;4982518;28;20047;-71
2022/11/17 11:36:59;;;;;;;2.75;0.75;;;;;;;17.73;69.59;98100.88;4981071;28;20042;-70
2022/11/17 11:39:39;;;;;;;1.95;0.55;;;;;;;17.86;69.42;98106.84;4985710;28;20030;-71
2022/11/17 11:42:29;;;;;;;4.72;1.00;;;;;;;17.57;69.99;98105.97;4989297;28;20030;-71
2022/11/17 11:45:17;;;;;;;3.95;0.77;;;;;;;17.32;69.85;98097.53;4985642;28;20053;-71
2022/11/17 11:47:55;;;;;;;4.35;0.80;;;;;;;17.94;70.83;98096.22;4983903;28;20022;-72
2022/11/17 11:50:24;;;;;;;3.50;0.98;;;;;;;18.25;67.05;98103.13;4985818;28;20482;-71
2022/11/17 11:53:04;;;;;;;4.75;0.80;;;;;;;17.85;67.04;98099.78;4987546;28;20026;-72
2022/11/17 11:55:34;;;;;;;2.45;0.80;;;;;;;17.45;68.87;98096.34;5004043;28;20905;-71
2022/11/17 11:58:11;;;;;;;1.70;0.70;;;;;;;17.42;73.15;98110.03;4984795;28;20026;-71
2022/11/17 12:00:40;;;;;;;5.32;1.17;;;;;;;17.13;74.41;98106.44;4987712;28;20030;-71
2022/11/17 12:03:31;;;;;;;4.60;0.90;;;;;;;16.83;77.43;98096.56;4977239;28;20034;-71
2022/11/17 12:09:09;;;;;;;3.28;0.95;;;;;;;16.63;77.65;98105.50;4985706;28;20065;-72
2022/11/17 12:14:23;;;;;;;5.90;1.40;;;;;;;17.83;72.86;98091.00;4984901;28;20116;-71
2022/11/17 12:16:48;;;;;;;5.15;1.17;;;;;;;18.97;66.56;98080.97;4985478;28;20378;-72
2022/11/17 12:19:48;;;;;;;7.80;1.85;;;;;;;19.78;61.21;98091.72;4985620;28;20057;-72